UNTT/TOF METAR and TAF weather

Enter ICAO airport designator
Station Type Date Time Source
UNTT METAR 2021/07/28 05:00 UTC NOAA

UNTT 280500Z 25002MPS 200V320 9999 SCT046 19/08 Q1010 R21/090060 NOSIG RMK QFE743


Station Type Date Time Source
UNTT Decoded METAR 2021/07/28 05:00 UTC NOAA

Station name not available
Jul 28, 2021 - 01:00 AM EDT / 2021.07.28 0500 UTC
Wind: from the WSW (250 degrees) at 4 MPH (4 KT) (direction variable):0
Visibility: greater than 7 mile(s):0
Sky conditions: partly cloudy
Temperature: 66 F (19 C)
Dew Point: 46 F (8 C)
Relative Humidity: 48%
Pressure (altimeter): 29.83 in. Hg (1010 hPa)
ob: UNTT 280500Z 25002MPS 200V320 9999 SCT046 19/08 Q1010 R21/090060 NOSIG RMK QFE743
cycle: 5

Station Type Date Time Source
UNTT TAF UTC NOAA

Error!

Example: see airport list